createdAt,value
2019-04-27T00:00:59.871Z,50.20
2019-04-27T00:03:48.128Z,50.30
2019-04-27T00:06:20.075Z,50.30
2019-04-27T00:08:53.534Z,50.20
2019-04-27T00:11:28.591Z,50.30
2019-04-27T00:14:00.641Z,50.30
2019-04-27T00:16:46.903Z,50.40
2019-04-27T00:19:31.678Z,50.40
2019-04-27T00:22:04.013Z,50.40
2019-04-27T00:24:35.829Z,50.30
2019-04-27T00:27:06.825Z,50.40
2019-04-27T00:29:37.371Z,50.30
2019-04-27T00:32:07.755Z,50.10
2019-04-27T00:34:38.369Z,50.80
2019-04-27T00:37:10.367Z,50.10
2019-04-27T00:39:43.314Z,50.20
2019-04-27T00:42:14.304Z,50.20
2019-04-27T00:44:44.889Z,50.30
2019-04-27T00:47:15.251Z,50.30
2019-04-27T00:49:45.666Z,50.30
2019-04-27T00:52:16.111Z,50.30
2019-04-27T00:54:46.636Z,50.30
2019-04-27T00:57:20.042Z,50.40
2019-04-27T00:59:54.836Z,50.50
2019-04-27T01:02:33.170Z,50.70
2019-04-27T01:05:07.554Z,50.70
2019-04-27T01:07:37.940Z,50.80
2019-04-27T01:10:10.162Z,50.70
2019-04-27T01:12:42.990Z,50.70
2019-04-27T01:15:13.861Z,50.70
2019-04-27T01:17:44.353Z,50.90
2019-04-27T01:20:14.770Z,50.80
2019-04-27T01:22:45.146Z,50.70
2019-04-27T01:25:15.609Z,50.70
2019-04-27T01:27:53.455Z,50.80
2019-04-27T01:30:35.615Z,50.60
2019-04-27T01:33:06.869Z,50.70
2019-04-27T01:35:39.001Z,50.70
2019-04-27T01:38:09.862Z,50.60
2019-04-27T01:40:40.304Z,50.70
2019-04-27T01:43:10.728Z,50.70
2019-04-27T01:45:41.181Z,50.60
2019-04-27T01:48:22.884Z,50.40
2019-04-27T01:50:43.649Z,50.50
2019-04-27T01:53:14.073Z,50.40
2019-04-27T01:55:44.564Z,50.30
2019-04-27T01:58:15.041Z,50.30
2019-04-27T02:01:02.894Z,50.30
2019-04-27T02:03:34.923Z,50.50
2019-04-27T02:06:05.288Z,50.80
2019-04-27T02:08:35.696Z,50.70
2019-04-27T02:11:06.104Z,51.00
2019-04-27T02:13:36.471Z,50.90
2019-04-27T02:16:08.826Z,51.00
2019-04-27T02:18:40.019Z,51.00
2019-04-27T02:21:10.582Z,50.90
2019-04-27T02:23:40.939Z,51.00
2019-04-27T02:26:12.180Z,51.10
2019-04-27T02:28:44.127Z,51.10
2019-04-27T02:31:32.643Z,51.80
2019-04-27T02:34:04.666Z,51.10
2019-04-27T02:36:35.315Z,51.30
2019-04-27T02:39:09.489Z,51.50
2019-04-27T02:41:40.098Z,51.60
2019-04-27T02:44:15.222Z,51.50
2019-04-27T02:46:45.698Z,51.50
2019-04-27T02:49:16.088Z,51.60
2019-04-27T02:52:06.240Z,51.60
2019-04-27T02:54:36.602Z,51.60
2019-04-27T02:57:09.636Z,51.80
2019-04-27T02:59:40.743Z,51.80
2019-04-27T03:02:19.429Z,51.70
2019-04-27T03:04:49.960Z,51.80
2019-04-27T03:07:20.720Z,51.90
2019-04-27T03:09:51.504Z,51.90
2019-04-27T03:12:23.630Z,51.90
2019-04-27T03:14:59.574Z,51.80
2019-04-27T03:17:33.275Z,51.70
2019-04-27T03:20:13.037Z,51.70
2019-04-27T03:22:45.078Z,51.70
2019-04-27T03:25:20.153Z,51.80
2019-04-27T03:27:55.392Z,52.00
2019-04-27T03:30:25.829Z,52.00
2019-04-27T03:32:57.514Z,52.00
2019-04-27T03:35:32.147Z,52.10
2019-04-27T03:38:02.499Z,51.90
2019-04-27T03:40:33.208Z,52.10
2019-04-27T03:43:05.528Z,52.20
2019-04-27T03:45:36.012Z,52.40
2019-04-27T03:48:10.184Z,52.40
2019-04-27T03:50:42.922Z,52.40
2019-04-27T03:53:30.206Z,52.70
2019-04-27T03:56:10.148Z,52.90
2019-04-27T03:58:42.337Z,53.50
2019-04-27T04:01:12.777Z,52.90
2019-04-27T04:03:43.347Z,52.90
2019-04-27T04:06:13.851Z,52.70
2019-04-27T04:08:44.354Z,52.60
2019-04-27T04:11:16.447Z,52.50
2019-04-27T04:13:49.484Z,52.40
2019-04-27T04:16:24.129Z,52.60
2019-04-27T04:19:00.431Z,52.70
2019-04-27T04:21:30.132Z,52.60
2019-04-27T04:24:01.314Z,52.80
2019-04-27T04:26:32.684Z,52.50
2019-04-27T04:29:03.900Z,52.40
2019-04-27T04:31:34.376Z,52.40
2019-04-27T04:34:04.803Z,52.50
2019-04-27T04:36:35.388Z,52.50
2019-04-27T04:39:11.930Z,52.60
2019-04-27T04:41:43.591Z,52.70
2019-04-27T04:44:24.350Z,52.70
2019-04-27T04:47:00.348Z,52.60
2019-04-27T04:49:32.906Z,52.60
2019-04-27T04:52:03.397Z,52.70
2019-04-27T04:54:34.643Z,52.70
2019-04-27T04:57:05.014Z,52.60
2019-04-27T04:59:35.486Z,52.60
2019-04-27T05:02:05.928Z,52.80
2019-04-27T05:04:39.051Z,52.70
2019-04-27T05:07:11.878Z,52.70
2019-04-27T05:09:42.352Z,52.80
2019-04-27T05:12:12.752Z,52.90
2019-04-27T05:14:43.297Z,53.00
2019-04-27T05:17:13.687Z,53.00
2019-04-27T05:19:44.935Z,52.90
2019-04-27T05:22:16.221Z,52.70
2019-04-27T05:24:49.334Z,52.30
2019-04-27T05:27:19.854Z,52.30
2019-04-27T05:29:50.553Z,52.00
2019-04-27T05:32:22.757Z,51.70
2019-04-27T05:34:53.393Z,50.70
2019-04-27T05:37:28.596Z,49.90
2019-04-27T05:39:56.032Z,49.40
2019-04-27T05:42:26.415Z,48.00
2019-04-27T05:45:04.416Z,46.80
2019-04-27T05:47:48.387Z,45.70
2019-04-27T05:50:21.688Z,45.00
2019-04-27T05:52:49.816Z,44.50
2019-04-27T05:55:20.296Z,42.10
2019-04-27T05:57:50.673Z,40.70
2019-04-27T06:00:21.887Z,38.40
2019-04-27T06:02:52.361Z,35.90
2019-04-27T06:05:24.250Z,33.70
2019-04-27T06:07:54.673Z,32.80
2019-04-27T06:10:25.167Z,30.40
2019-04-27T06:12:56.460Z,29.20
2019-04-27T06:15:28.398Z,29.30
2019-04-27T06:17:59.649Z,29.80
2019-04-27T06:20:30.264Z,30.90
2019-04-27T06:23:00.794Z,31.90
2019-04-27T06:25:33.000Z,31.90
2019-04-27T06:28:03.467Z,31.90
2019-04-27T06:30:34.719Z,32.90
2019-04-27T06:33:05.467Z,33.80
2019-04-27T06:35:35.878Z,34.00
2019-04-27T06:38:06.337Z,33.40
2019-04-27T06:40:36.728Z,31.80
2019-04-27T06:43:08.605Z,29.00
2019-04-27T06:45:39.276Z,27.70
2019-04-27T06:48:09.743Z,27.10
2019-04-27T06:50:40.179Z,27.10
2019-04-27T06:53:10.578Z,26.00
2019-04-27T06:55:40.963Z,24.80
2019-04-27T06:58:11.368Z,24.80
2019-04-27T07:00:41.878Z,25.10
2019-04-27T07:03:12.268Z,25.80
2019-04-27T07:05:42.732Z,26.10
2019-04-27T07:08:14.599Z,25.10
2019-04-27T07:10:44.995Z,25.40
2019-04-27T07:13:15.481Z,24.80
2019-04-27T07:15:45.927Z,23.90
2019-04-27T07:18:18.544Z,23.90
2019-04-27T07:20:49.039Z,24.60
2019-04-27T07:23:20.981Z,23.90
2019-04-27T07:25:51.492Z,22.10
2019-04-27T07:28:21.963Z,20.50
2019-04-27T07:30:52.348Z,18.50
2019-04-27T07:33:22.834Z,17.30
2019-04-27T07:35:53.328Z,16.40
2019-04-27T07:38:23.759Z,16.90
2019-04-27T07:40:54.142Z,18.10
2019-04-27T07:43:26.201Z,19.30
2019-04-27T07:45:56.921Z,19.10
2019-04-27T07:48:28.539Z,19.60
2019-04-27T07:50:59.219Z,19.90
2019-04-27T07:53:29.683Z,20.60
2019-04-27T07:56:00.132Z,21.40
2019-04-27T07:58:30.610Z,22.10
2019-04-27T08:01:02.768Z,22.70
2019-04-27T08:03:34.880Z,23.20
2019-04-27T08:06:05.338Z,24.30
2019-04-27T08:08:35.747Z,25.30
2019-04-27T08:11:06.487Z,25.80
2019-04-27T08:13:36.864Z,25.90
2019-04-27T08:16:08.827Z,26.70
2019-04-27T08:18:39.665Z,27.00
2019-04-27T08:21:10.218Z,26.50
2019-04-27T08:23:42.151Z,24.30
2019-04-27T08:26:14.341Z,24.00
2019-04-27T08:28:48.640Z,24.30
2019-04-27T08:31:20.736Z,24.60
2019-04-27T08:33:51.139Z,24.60
2019-04-27T08:36:21.587Z,22.30
2019-04-27T08:38:52.121Z,21.70
2019-04-27T08:41:24.043Z,22.70
2019-04-27T08:43:54.659Z,24.30
2019-04-27T08:46:28.452Z,25.30
2019-04-27T08:48:58.937Z,26.50
2019-04-27T08:51:29.661Z,27.20
2019-04-27T08:54:00.097Z,28.20
2019-04-27T08:56:30.624Z,29.50
2019-04-27T08:59:02.575Z,30.00
2019-04-27T09:01:33.080Z,29.10
2019-04-27T09:04:03.456Z,28.40
2019-04-27T09:06:37.452Z,27.60
2019-04-27T09:09:22.449Z,26.40
2019-04-27T09:11:54.432Z,25.50
2019-04-27T09:14:32.353Z,25.40
2019-04-27T09:17:04.334Z,26.30
2019-04-27T09:19:36.263Z,26.60
2019-04-27T09:22:16.074Z,26.60
2019-04-27T09:24:40.332Z,26.10
2019-04-27T09:27:10.804Z,25.30
2019-04-27T09:29:41.234Z,25.40
2019-04-27T09:32:11.617Z,26.00
2019-04-27T09:34:42.056Z,26.50
2019-04-27T09:37:12.530Z,27.40
2019-04-27T09:39:46.061Z,28.40
2019-04-27T09:42:16.844Z,29.30
2019-04-27T09:44:47.622Z,29.70
2019-04-27T09:47:18.385Z,29.20
2019-04-27T09:49:48.827Z,27.80
2019-04-27T09:52:25.899Z,27.40
2019-04-27T09:54:51.393Z,27.00
2019-04-27T09:57:21.866Z,28.20
2019-04-27T09:59:52.243Z,28.20
2019-04-27T10:02:24.126Z,27.40
2019-04-27T10:04:58.907Z,27.70
2019-04-27T10:07:29.409Z,27.80
2019-04-27T10:09:59.778Z,27.70
2019-04-27T10:12:30.188Z,27.70
2019-04-27T10:15:00.565Z,28.50
2019-04-27T10:17:30.976Z,28.90
2019-04-27T10:20:01.377Z,29.30
2019-04-27T10:22:41.257Z,30.00
2019-04-27T10:25:06.323Z,30.30
2019-04-27T10:27:37.015Z,30.50
2019-04-27T10:30:08.972Z,30.80
2019-04-27T10:32:39.369Z,30.60
2019-04-27T10:35:09.815Z,30.30
2019-04-27T10:37:41.772Z,30.10
2019-04-27T10:40:13.674Z,29.90
2019-04-27T10:42:45.851Z,30.00
2019-04-27T10:45:17.638Z,30.40
2019-04-27T10:47:49.580Z,30.30
2019-04-27T10:50:21.812Z,30.60
2019-04-27T10:52:53.990Z,30.70
2019-04-27T10:55:26.132Z,30.50
2019-04-27T10:57:56.840Z,30.60
2019-04-27T11:00:36.690Z,31.50
2019-04-27T11:03:07.037Z,31.10
2019-04-27T11:05:46.018Z,31.50
2019-04-27T11:08:16.795Z,32.20
2019-04-27T11:10:47.262Z,32.30
2019-04-27T11:13:17.744Z,32.40
2019-04-27T11:15:49.591Z,32.40
2019-04-27T11:18:20.020Z,31.80
2019-04-27T11:20:51.870Z,31.30
2019-04-27T11:23:23.789Z,31.20
2019-04-27T11:25:54.201Z,30.60
2019-04-27T11:28:25.825Z,30.20
2019-04-27T11:30:56.405Z,30.00
2019-04-27T11:33:26.800Z,30.00
2019-04-27T11:36:04.290Z,30.00
2019-04-27T11:38:36.490Z,30.00
2019-04-27T11:41:07.631Z,29.80
2019-04-27T11:43:38.063Z,29.70
2019-04-27T11:46:08.527Z,30.00
2019-04-27T11:48:40.395Z,30.00
2019-04-27T11:51:11.057Z,30.00
2019-04-27T11:53:42.556Z,30.40
2019-04-27T11:56:12.998Z,30.90
2019-04-27T11:58:43.397Z,31.10
2019-04-27T12:01:13.770Z,31.20
2019-04-27T12:03:44.547Z,31.60
2019-04-27T12:06:15.796Z,31.70
2019-04-27T12:08:47.821Z,31.40
2019-04-27T12:11:18.220Z,31.50
2019-04-27T12:13:48.833Z,31.20
2019-04-27T12:16:19.356Z,31.30
2019-04-27T12:18:49.834Z,31.50
2019-04-27T12:21:20.488Z,31.60
2019-04-27T12:23:50.898Z,31.70
2019-04-27T12:26:25.986Z,31.60
2019-04-27T12:28:57.460Z,31.40
2019-04-27T12:31:29.434Z,31.60
2019-04-27T12:33:59.891Z,31.50
2019-04-27T12:36:30.279Z,31.10
2019-04-27T12:39:00.659Z,31.50
2019-04-27T12:41:31.264Z,32.00
2019-04-27T12:44:01.644Z,31.90
2019-04-27T12:46:32.050Z,31.60
2019-04-27T12:49:02.643Z,31.00
2019-04-27T12:51:33.104Z,30.60
2019-04-27T12:54:05.980Z,30.50
2019-04-27T12:56:51.912Z,30.40
2019-04-27T12:59:40.142Z,30.80
2019-04-27T13:02:10.819Z,31.60
2019-04-27T13:04:41.464Z,31.70
2019-04-27T13:07:11.860Z,32.00
2019-04-27T13:09:42.327Z,31.90
2019-04-27T13:12:12.715Z,31.90
2019-04-27T13:14:45.741Z,31.60
2019-04-27T13:17:16.473Z,31.60
2019-04-27T13:19:47.403Z,31.80
2019-04-27T13:22:19.255Z,31.40
2019-04-27T13:24:49.689Z,31.10
2019-04-27T13:27:20.044Z,30.90
2019-04-27T13:29:50.465Z,30.70
2019-04-27T13:32:20.850Z,30.40
2019-04-27T13:34:51.318Z,30.20
2019-04-27T13:37:29.318Z,30.60
2019-04-27T13:40:07.159Z,31.20
2019-04-27T13:42:33.388Z,32.00
2019-04-27T13:45:06.478Z,32.50
2019-04-27T13:47:47.454Z,32.90
2019-04-27T13:50:19.618Z,33.60
2019-04-27T13:52:50.005Z,34.60
2019-04-27T13:55:20.542Z,34.90
2019-04-27T13:57:53.299Z,35.00
2019-04-27T14:00:23.684Z,34.90
2019-04-27T14:02:55.660Z,34.80
2019-04-27T14:05:26.093Z,34.50
2019-04-27T14:07:56.602Z,34.40
2019-04-27T14:10:28.699Z,34.50
2019-04-27T14:12:59.345Z,34.10
2019-04-27T14:15:29.711Z,33.90
2019-04-27T14:18:01.589Z,33.30
2019-04-27T14:20:31.975Z,33.10
2019-04-27T14:23:08.277Z,33.20
2019-04-27T14:25:39.142Z,33.60
2019-04-27T14:28:09.654Z,33.80
2019-04-27T14:30:40.920Z,33.90
2019-04-27T14:33:11.346Z,33.90
2019-04-27T14:35:41.722Z,34.00
2019-04-27T14:38:12.192Z,34.00
2019-04-27T14:40:42.635Z,34.20
2019-04-27T14:43:13.113Z,34.30
2019-04-27T14:45:43.937Z,34.60
2019-04-27T14:48:14.426Z,34.80
2019-04-27T14:50:44.847Z,34.90
2019-04-27T14:53:15.289Z,35.10
2019-04-27T14:55:45.717Z,35.30
2019-04-27T14:58:16.100Z,36.10
2019-04-27T15:00:46.621Z,35.30
2019-04-27T15:03:17.097Z,35.60
2019-04-27T15:05:49.674Z,35.90
2019-04-27T15:08:20.702Z,36.30
2019-04-27T15:10:51.323Z,36.30
2019-04-27T15:13:21.708Z,36.50
2019-04-27T15:15:52.124Z,36.80
2019-04-27T15:18:24.145Z,37.10
2019-04-27T15:20:58.561Z,37.30
2019-04-27T15:23:30.846Z,37.50
2019-04-27T15:26:00.462Z,37.30
2019-04-27T15:28:32.517Z,37.10
2019-04-27T15:31:06.057Z,37.10
2019-04-27T15:33:54.813Z,37.10
2019-04-27T15:36:45.266Z,37.10
2019-04-27T15:39:34.003Z,37.40
2019-04-27T15:42:08.151Z,37.60
2019-04-27T15:44:41.077Z,37.50
2019-04-27T15:47:11.944Z,37.60
2019-04-27T15:49:49.882Z,37.70
2019-04-27T15:52:17.952Z,37.40
2019-04-27T15:54:48.580Z,37.80
2019-04-27T15:57:20.925Z,37.80
2019-04-27T15:59:51.364Z,38.00
2019-04-27T16:02:21.875Z,38.30
2019-04-27T16:04:53.527Z,38.60
2019-04-27T16:07:29.758Z,38.60
2019-04-27T16:09:59.154Z,38.40
2019-04-27T16:12:29.240Z,38.20
2019-04-27T16:15:01.346Z,38.30
2019-04-27T16:17:32.633Z,38.30
2019-04-27T16:20:03.364Z,38.40
2019-04-27T16:22:33.772Z,38.40
2019-04-27T16:25:08.318Z,38.30
2019-04-27T16:27:39.116Z,38.50
2019-04-27T16:30:17.934Z,38.60
2019-04-27T16:32:46.052Z,38.80
2019-04-27T16:35:19.471Z,38.90
2019-04-27T16:37:56.362Z,38.70
2019-04-27T16:40:26.785Z,38.80
2019-04-27T16:42:58.476Z,38.90
2019-04-27T16:45:28.989Z,39.20
2019-04-27T16:47:59.845Z,39.30
2019-04-27T16:50:33.783Z,39.50
2019-04-27T16:53:04.654Z,39.60
2019-04-27T16:55:35.401Z,39.70
2019-04-27T16:58:09.648Z,39.80
2019-04-27T17:00:40.765Z,40.00
2019-04-27T17:03:12.611Z,40.00
2019-04-27T17:05:43.092Z,40.30
2019-04-27T17:08:21.574Z,40.50
2019-04-27T17:10:45.614Z,40.70
2019-04-27T17:13:16.257Z,41.00
2019-04-27T17:16:05.985Z,40.90
2019-04-27T17:18:38.590Z,41.00
2019-04-27T17:21:18.395Z,41.10
2019-04-27T17:23:41.350Z,41.30
2019-04-27T17:26:21.086Z,41.40
2019-04-27T17:28:50.914Z,41.40
2019-04-27T17:31:22.134Z,41.40
2019-04-27T17:34:02.122Z,41.50
2019-04-27T17:36:32.686Z,41.50
2019-04-27T17:39:04.021Z,41.80
2019-04-27T17:41:36.245Z,42.10
2019-04-27T17:44:08.544Z,42.10
2019-04-27T17:46:42.649Z,42.30
2019-04-27T17:49:12.942Z,42.50
2019-04-27T17:51:48.335Z,42.70
2019-04-27T17:54:19.430Z,43.00
2019-04-27T17:56:52.384Z,43.00
2019-04-27T17:59:26.210Z,42.90
2019-04-27T18:02:00.816Z,43.00
2019-04-27T18:04:32.869Z,43.00
2019-04-27T18:07:05.264Z,43.00
2019-04-27T18:09:39.969Z,43.10
2019-04-27T18:12:14.581Z,43.00
2019-04-27T18:14:43.097Z,43.20
2019-04-27T18:17:15.186Z,43.00
2019-04-27T18:19:47.321Z,43.00
2019-04-27T18:22:17.906Z,43.00
2019-04-27T18:24:51.621Z,43.10
2019-04-27T18:27:39.645Z,42.90
2019-04-27T18:30:23.220Z,42.40
2019-04-27T18:32:59.207Z,43.20
2019-04-27T18:35:27.952Z,43.30
2019-04-27T18:38:01.629Z,43.40
2019-04-27T18:40:33.230Z,43.40
2019-04-27T18:43:06.478Z,43.50
2019-04-27T18:45:44.768Z,43.50
2019-04-27T18:48:13.882Z,43.60
2019-04-27T18:50:52.036Z,43.60
2019-04-27T18:53:24.414Z,43.70
2019-04-27T18:55:58.431Z,44.20
2019-04-27T18:58:27.374Z,44.30
2019-04-27T19:00:58.263Z,44.60
2019-04-27T19:03:31.415Z,44.90
2019-04-27T19:06:01.212Z,45.00
2019-04-27T19:08:31.863Z,45.10
2019-04-27T19:11:04.867Z,45.10
2019-04-27T19:13:34.546Z,45.70
2019-04-27T19:16:08.266Z,45.00
2019-04-27T19:18:39.873Z,45.00
2019-04-27T19:21:10.469Z,45.10
2019-04-27T19:23:41.165Z,45.10
2019-04-27T19:26:13.163Z,45.00
2019-04-27T19:28:58.379Z,45.00
2019-04-27T19:31:33.262Z,45.20
2019-04-27T19:34:03.774Z,45.30
2019-04-27T19:36:34.145Z,45.80
2019-04-27T19:39:08.666Z,45.80
2019-04-27T19:41:38.917Z,45.90
2019-04-27T19:44:11.081Z,45.90
2019-04-27T19:46:41.820Z,45.80
2019-04-27T19:49:12.404Z,45.90
2019-04-27T19:51:44.554Z,45.90
2019-04-27T19:54:15.117Z,46.00
2019-04-27T19:56:45.736Z,46.00
2019-04-27T19:59:19.294Z,46.20
2019-04-27T20:01:52.089Z,46.00
2019-04-27T20:04:30.741Z,45.90
2019-04-27T20:07:01.299Z,46.00
2019-04-27T20:09:42.307Z,46.10
2019-04-27T20:12:14.304Z,46.00
2019-04-27T20:14:58.263Z,46.20
2019-04-27T20:17:31.106Z,46.50
2019-04-27T20:20:05.068Z,46.80
2019-04-27T20:22:35.462Z,47.00
2019-04-27T20:25:07.599Z,47.30
2019-04-27T20:27:46.038Z,47.40
2019-04-27T20:30:12.185Z,47.70
2019-04-27T20:32:44.051Z,47.70
2019-04-27T20:35:14.470Z,47.80
2019-04-27T20:37:44.960Z,48.00
2019-04-27T20:40:16.799Z,48.10
2019-04-27T20:42:47.360Z,48.40
2019-04-27T20:45:17.832Z,48.30
2019-04-27T20:47:48.269Z,48.60
2019-04-27T20:50:18.734Z,48.80
2019-04-27T20:52:50.746Z,48.90
2019-04-27T20:55:21.460Z,48.90
2019-04-27T20:57:59.713Z,49.00
2019-04-27T21:00:24.301Z,49.00
2019-04-27T21:03:02.477Z,49.00
2019-04-27T21:05:41.135Z,48.90
2019-04-27T21:08:13.332Z,49.20
2019-04-27T21:10:43.707Z,49.40
2019-04-27T21:13:14.233Z,49.80
2019-04-27T21:15:44.794Z,49.80
2019-04-27T21:18:15.188Z,49.90
2019-04-27T21:20:45.577Z,50.00
2019-04-27T21:23:16.366Z,50.10
2019-04-27T21:25:51.114Z,50.30
2019-04-27T21:28:20.306Z,50.30
2019-04-27T21:30:50.881Z,50.50
2019-04-27T21:33:21.630Z,50.60
2019-04-27T21:35:52.132Z,50.70
2019-04-27T21:38:24.376Z,50.80
2019-04-27T21:40:56.582Z,51.00
2019-04-27T21:43:28.668Z,51.00
2019-04-27T21:45:59.037Z,51.20
2019-04-27T21:48:31.300Z,51.30
2019-04-27T21:51:02.699Z,51.30
2019-04-27T21:53:34.680Z,51.40
2019-04-27T21:56:06.634Z,51.30
2019-04-27T21:58:37.119Z,51.40
2019-04-27T22:01:15.022Z,51.40
2019-04-27T22:03:46.269Z,51.50
2019-04-27T22:06:16.671Z,51.60
2019-04-27T22:08:47.066Z,52.30
2019-04-27T22:11:17.588Z,51.60
2019-04-27T22:13:48.080Z,51.80
2019-04-27T22:16:18.785Z,51.80
2019-04-27T22:18:49.172Z,51.90
2019-04-27T22:21:21.435Z,52.00
2019-04-27T22:24:04.980Z,52.10
2019-04-27T22:26:35.383Z,52.10
2019-04-27T22:29:05.795Z,52.20
2019-04-27T22:31:36.167Z,52.40
2019-04-27T22:34:06.693Z,53.00
2019-04-27T22:36:39.919Z,52.50
2019-04-27T22:39:17.919Z,52.60
2019-04-27T22:41:51.619Z,52.50
2019-04-27T22:44:40.103Z,52.70
2019-04-27T22:47:11.117Z,52.90
2019-04-27T22:49:42.598Z,53.10
2019-04-27T22:52:13.164Z,53.10
2019-04-27T22:54:43.685Z,53.30
2019-04-27T22:57:16.557Z,53.40
2019-04-27T22:59:54.904Z,53.40
2019-04-27T23:02:29.268Z,53.60
2019-04-27T23:05:01.905Z,53.60
2019-04-27T23:07:32.946Z,53.70
2019-04-27T23:10:04.413Z,53.90
2019-04-27T23:12:34.847Z,54.00
2019-04-27T23:15:08.610Z,54.20
2019-04-27T23:17:51.675Z,54.20
2019-04-27T23:20:21.937Z,54.40
2019-04-27T23:22:52.585Z,54.50
2019-04-27T23:25:22.972Z,54.70
2019-04-27T23:27:53.388Z,54.80
2019-04-27T23:30:27.061Z,55.00
2019-04-27T23:32:57.497Z,55.10
2019-04-27T23:35:27.875Z,55.10
2019-04-27T23:37:58.353Z,55.00
2019-04-27T23:40:28.755Z,55.00
2019-04-27T23:42:59.316Z,55.00
2019-04-27T23:45:29.683Z,55.10
2019-04-27T23:48:00.089Z,55.20
2019-04-27T23:50:32.037Z,55.30
2019-04-27T23:53:04.004Z,55.40
2019-04-27T23:55:39.246Z,55.30
2019-04-27T23:58:09.638Z,55.20
